sensor_id;sensor_type;location;lat;lon;timestamp;pressure;altitude;pressure_sealevel;temperature;humidity
73297;BME280;61524;50.938;11.396;2024-03-17T00:01:38;99787.06;;;0.22;97.24
73297;BME280;61524;50.938;11.396;2024-03-17T00:04:03;99786.25;;;0.22;97.30
73297;BME280;61524;50.938;11.396;2024-03-17T00:06:30;99802.50;;;0.25;98.11
73297;BME280;61524;50.938;11.396;2024-03-17T00:08:55;99793.59;;;0.10;97.72
73297;BME280;61524;50.938;11.396;2024-03-17T00:11:21;99801.34;;;0.12;96.96
73297;BME280;61524;50.938;11.396;2024-03-17T00:13:46;99795.91;;;0.13;97.04
73297;BME280;61524;50.938;11.396;2024-03-17T00:16:12;99803.63;;;0.07;97.34
73297;BME280;61524;50.938;11.396;2024-03-17T00:18:39;99803.56;;;-0.02;97.85
73297;BME280;61524;50.938;11.396;2024-03-17T00:21:04;99796.16;;;-0.14;97.81
73297;BME280;61524;50.938;11.396;2024-03-17T00:23:30;99813.59;;;0.03;98.15
73297;BME280;61524;50.938;11.396;2024-03-17T00:25:55;99807.34;;;-0.04;97.79
73297;BME280;61524;50.938;11.396;2024-03-17T00:28:21;99799.47;;;-0.04;98.37
73297;BME280;61524;50.938;11.396;2024-03-17T00:30:46;99787.81;;;-0.10;97.77
73297;BME280;61524;50.938;11.396;2024-03-17T00:33:12;99799.13;;;-0.09;97.55
73297;BME280;61524;50.938;11.396;2024-03-17T00:35:37;99808.31;;;-0.13;97.16
73297;BME280;61524;50.938;11.396;2024-03-17T00:38:03;99810.06;;;-0.22;98.20
73297;BME280;61524;50.938;11.396;2024-03-17T00:40:35;99803.28;;;-0.33;97.68
73297;BME280;61524;50.938;11.396;2024-03-17T00:43:01;99797.56;;;-0.36;97.84
73297;BME280;61524;50.938;11.396;2024-03-17T00:45:26;99808.06;;;-0.36;98.66
73297;BME280;61524;50.938;11.396;2024-03-17T00:47:52;99814.31;;;-0.29;97.95
73297;BME280;61524;50.938;11.396;2024-03-17T00:50:17;99807.72;;;-0.33;98.52
73297;BME280;61524;50.938;11.396;2024-03-17T00:52:43;99812.16;;;-0.34;97.84
73297;BME280;61524;50.938;11.396;2024-03-17T00:55:09;99809.03;;;-0.37;97.90
73297;BME280;61524;50.938;11.396;2024-03-17T00:57:35;99815.25;;;-0.38;97.89
73297;BME280;61524;50.938;11.396;2024-03-17T01:00:03;99808.47;;;-0.49;97.79
73297;BME280;61524;50.938;11.396;2024-03-17T01:02:28;99808.47;;;-0.49;97.79
73297;BME280;61524;50.938;11.396;2024-03-17T01:04:54;99810.91;;;-0.56;97.61
73297;BME280;61524;50.938;11.396;2024-03-17T01:07:19;99819.94;;;-0.50;98.21
73297;BME280;61524;50.938;11.396;2024-03-17T01:09:47;99818.97;;;-0.49;98.39
73297;BME280;61524;50.938;11.396;2024-03-17T01:12:13;99810.13;;;-0.48;98.63
73297;BME280;61524;50.938;11.396;2024-03-17T01:14:38;99816.56;;;-0.68;99.11
73297;BME280;61524;50.938;11.396;2024-03-17T01:17:04;99817.81;;;-0.81;99.03
73297;BME280;61524;50.938;11.396;2024-03-17T01:19:33;99817.50;;;-0.77;98.76
73297;BME280;61524;50.938;11.396;2024-03-17T01:22:00;99824.75;;;-0.71;99.34
73297;BME280;61524;50.938;11.396;2024-03-17T01:24:26;99812.25;;;-0.77;99.96
73297;BME280;61524;50.938;11.396;2024-03-17T01:26:59;99807.34;;;-0.72;99.14
73297;BME280;61524;50.938;11.396;2024-03-17T01:29:25;99814.41;;;-0.73;99.09
73297;BME280;61524;50.938;11.396;2024-03-17T01:31:51;99806.63;;;-0.83;99.52
73297;BME280;61524;50.938;11.396;2024-03-17T01:34:20;99815.78;;;-0.87;99.00
73297;BME280;61524;50.938;11.396;2024-03-17T01:36:46;99806.00;;;-0.76;99.10
73297;BME280;61524;50.938;11.396;2024-03-17T01:39:11;99803.44;;;-0.68;99.87
73297;BME280;61524;50.938;11.396;2024-03-17T01:41:37;99800.19;;;-0.62;100.00
73297;BME280;61524;50.938;11.396;2024-03-17T01:44:03;99807.78;;;-0.59;100.00
73297;BME280;61524;50.938;11.396;2024-03-17T01:46:28;99799.84;;;-0.67;100.00
73297;BME280;61524;50.938;11.396;2024-03-17T01:48:54;99810.03;;;-0.64;100.00
73297;BME280;61524;50.938;11.396;2024-03-17T01:51:20;99809.00;;;-0.71;100.00
73297;BME280;61524;50.938;11.396;2024-03-17T01:53:47;99798.00;;;-0.75;100.00
73297;BME280;61524;50.938;11.396;2024-03-17T01:56:15;99791.00;;;-0.66;100.00
73297;BME280;61524;50.938;11.396;2024-03-17T01:58:44;99790.81;;;-0.65;100.00
73297;BME280;61524;50.938;11.396;2024-03-17T02:01:10;99784.66;;;-0.56;100.00
73297;BME280;61524;50.938;11.396;2024-03-17T02:03:35;99776.63;;;-0.54;99.93
73297;BME280;61524;50.938;11.396;2024-03-17T02:06:01;99789.31;;;-0.41;99.65
73297;BME280;61524;50.938;11.396;2024-03-17T02:08:27;99787.53;;;-0.33;99.28
73297;BME280;61524;50.938;11.396;2024-03-17T02:10:53;99799.72;;;-0.23;99.79
73297;BME280;61524;50.938;11.396;2024-03-17T02:13:20;99800.13;;;-0.10;99.62
73297;BME280;61524;50.938;11.396;2024-03-17T02:15:46;99789.44;;;-0.09;100.00
73297;BME280;61524;50.938;11.396;2024-03-17T02:18:12;99788.94;;;-0.12;100.00
73297;BME280;61524;50.938;11.396;2024-03-17T02:20:37;99799.59;;;-0.14;100.00
73297;BME280;61524;50.938;11.396;2024-03-17T02:23:22;99799.44;;;-0.12;100.00
73297;BME280;61524;50.938;11.396;2024-03-17T02:25:51;99797.84;;;-0.05;99.93
73297;BME280;61524;50.938;11.396;2024-03-17T02:28:17;99789.47;;;-0.01;99.61
73297;BME280;61524;50.938;11.396;2024-03-17T02:30:42;99785.34;;;-0.03;99.29
73297;BME280;61524;50.938;11.396;2024-03-17T02:33:08;99771.25;;;-0.02;99.14
73297;BME280;61524;50.938;11.396;2024-03-17T02:35:33;99784.72;;;-0.05;99.80
73297;BME280;61524;50.938;11.396;2024-03-17T02:37:58;99784.88;;;0.02;99.76
73297;BME280;61524;50.938;11.396;2024-03-17T02:40:25;99776.19;;;0.09;99.71
73297;BME280;61524;50.938;11.396;2024-03-17T02:42:50;99776.69;;;0.13;99.59
73297;BME280;61524;50.938;11.396;2024-03-17T02:45:15;99775.41;;;0.17;99.86
73297;BME280;61524;50.938;11.396;2024-03-17T02:47:42;99766.97;;;0.05;100.00
73297;BME280;61524;50.938;11.396;2024-03-17T02:50:08;99770.63;;;0.12;100.00
73297;BME280;61524;50.938;11.396;2024-03-17T02:52:34;99773.59;;;0.17;100.00
73297;BME280;61524;50.938;11.396;2024-03-17T02:55:00;99756.81;;;0.10;100.00
73297;BME280;61524;50.938;11.396;2024-03-17T02:57:25;99761.09;;;0.19;100.00
73297;BME280;61524;50.938;11.396;2024-03-17T02:59:54;99757.31;;;0.06;99.60
73297;BME280;61524;50.938;11.396;2024-03-17T03:02:20;99756.34;;;0.07;99.81
73297;BME280;61524;50.938;11.396;2024-03-17T03:04:45;99756.34;;;0.07;99.81
73297;BME280;61524;50.938;11.396;2024-03-17T03:07:11;99754.88;;;0.12;99.47
73297;BME280;61524;50.938;11.396;2024-03-17T03:09:36;99760.47;;;0.17;99.52
73297;BME280;61524;50.938;11.396;2024-03-17T03:12:02;99768.81;;;0.21;99.22
73297;BME280;61524;50.938;11.396;2024-03-17T03:14:28;99760.47;;;0.25;99.08
73297;BME280;61524;50.938;11.396;2024-03-17T03:16:54;99763.75;;;0.36;99.71
73297;BME280;61524;50.938;11.396;2024-03-17T03:19:19;99759.00;;;0.39;100.00
73297;BME280;61524;50.938;11.396;2024-03-17T03:21:45;99771.16;;;0.40;100.00
73297;BME280;61524;50.938;11.396;2024-03-17T03:24:14;99766.41;;;0.44;100.00
73297;BME280;61524;50.938;11.396;2024-03-17T03:26:40;99773.63;;;0.50;99.93
73297;BME280;61524;50.938;11.396;2024-03-17T03:29:05;99748.81;;;0.44;99.89
73297;BME280;61524;50.938;11.396;2024-03-17T03:31:34;99760.31;;;0.51;100.00
73297;BME280;61524;50.938;11.396;2024-03-17T03:34:00;99759.16;;;0.62;100.00
73297;BME280;61524;50.938;11.396;2024-03-17T03:36:28;99763.94;;;0.67;99.63
73297;BME280;61524;50.938;11.396;2024-03-17T03:38:54;99761.78;;;0.78;99.99
73297;BME280;61524;50.938;11.396;2024-03-17T03:41:22;99755.88;;;0.85;99.97
73297;BME280;61524;50.938;11.396;2024-03-17T03:43:48;99775.28;;;0.84;100.00
73297;BME280;61524;50.938;11.396;2024-03-17T03:46:14;99750.59;;;0.93;99.57
73297;BME280;61524;50.938;11.396;2024-03-17T03:48:39;99758.97;;;0.96;100.00
73297;BME280;61524;50.938;11.396;2024-03-17T03:51:08;99759.28;;;1.01;98.90
73297;BME280;61524;50.938;11.396;2024-03-17T03:53:36;99755.03;;;1.00;99.92
73297;BME280;61524;50.938;11.396;2024-03-17T03:56:04;99764.06;;;1.06;99.54
73297;BME280;61524;50.938;11.396;2024-03-17T03:58:35;99765.19;;;1.12;99.41
73297;BME280;61524;50.938;11.396;2024-03-17T04:01:04;99769.31;;;1.14;99.63
73297;BME280;61524;50.938;11.396;2024-03-17T04:03:31;99771.44;;;1.11;99.54
73297;BME280;61524;50.938;11.396;2024-03-17T04:06:07;99782.47;;;1.14;99.66
73297;BME280;61524;50.938;11.396;2024-03-17T04:08:33;99775.22;;;1.16;100.00
73297;BME280;61524;50.938;11.396;2024-03-17T04:10:59;99770.13;;;1.07;100.00
73297;BME280;61524;50.938;11.396;2024-03-17T04:13:26;99770.31;;;1.13;100.00
73297;BME280;61524;50.938;11.396;2024-03-17T04:15:52;99779.50;;;1.17;100.00
73297;BME280;61524;50.938;11.396;2024-03-17T04:18:22;99758.97;;;1.04;100.00
73297;BME280;61524;50.938;11.396;2024-03-17T04:20:50;99774.25;;;1.09;100.00
73297;BME280;61524;50.938;11.396;2024-03-17T04:23:16;99773.59;;;1.15;100.00
73297;BME280;61524;50.938;11.396;2024-03-17T04:25:41;99783.63;;;1.12;100.00
73297;BME280;61524;50.938;11.396;2024-03-17T04:28:08;99769.81;;;1.10;100.00
73297;BME280;61524;50.938;11.396;2024-03-17T04:30:34;99782.94;;;1.18;100.00
73297;BME280;61524;50.938;11.396;2024-03-17T04:32:59;99777.84;;;1.24;99.84
73297;BME280;61524;50.938;11.396;2024-03-17T04:35:25;99775.88;;;1.26;98.23
73297;BME280;61524;50.938;11.396;2024-03-17T04:37:50;99770.91;;;1.23;99.66
73297;BME280;61524;50.938;11.396;2024-03-17T04:40:16;99791.47;;;1.28;98.95
73297;BME280;61524;50.938;11.396;2024-03-17T04:42:41;99789.97;;;1.34;99.41
73297;BME280;61524;50.938;11.396;2024-03-17T04:45:07;99780.31;;;1.26;99.50
73297;BME280;61524;50.938;11.396;2024-03-17T04:47:35;99779.81;;;1.30;99.17
73297;BME280;61524;50.938;11.396;2024-03-17T04:50:00;99767.13;;;1.34;99.30
73297;BME280;61524;50.938;11.396;2024-03-17T04:52:25;99784.72;;;1.34;99.56
73297;BME280;61524;50.938;11.396;2024-03-17T04:54:51;99775.50;;;1.38;99.13
73297;BME280;61524;50.938;11.396;2024-03-17T04:57:16;99781.13;;;1.35;99.61
73297;BME280;61524;50.938;11.396;2024-03-17T04:59:42;99787.66;;;1.39;99.71
73297;BME280;61524;50.938;11.396;2024-03-17T05:02:07;99787.66;;;1.47;99.76
73297;BME280;61524;50.938;11.396;2024-03-17T05:04:33;99794.56;;;1.40;99.73
73297;BME280;61524;50.938;11.396;2024-03-17T05:06:58;99795.25;;;1.42;99.78
73297;BME280;61524;50.938;11.396;2024-03-17T05:09:24;99793.91;;;1.46;99.80
73297;BME280;61524;50.938;11.396;2024-03-17T05:11:52;99798.06;;;1.40;100.00
73297;BME280;61524;50.938;11.396;2024-03-17T05:14:17;99797.19;;;1.40;100.00
73297;BME280;61524;50.938;11.396;2024-03-17T05:16:44;99797.19;;;1.40;100.00
73297;BME280;61524;50.938;11.396;2024-03-17T05:19:10;99811.50;;;1.45;100.00
73297;BME280;61524;50.938;11.396;2024-03-17T05:21:36;99804.91;;;1.49;99.87
73297;BME280;61524;50.938;11.396;2024-03-17T05:24:02;99801.00;;;1.37;100.00
73297;BME280;61524;50.938;11.396;2024-03-17T05:26:27;99804.59;;;1.44;100.00
73297;BME280;61524;50.938;11.396;2024-03-17T05:28:53;99805.41;;;1.53;100.00
73297;BME280;61524;50.938;11.396;2024-03-17T05:31:19;99812.66;;;1.43;100.00
73297;BME280;61524;50.938;11.396;2024-03-17T05:33:47;99812.00;;;1.49;100.00
73297;BME280;61524;50.938;11.396;2024-03-17T05:36:12;99815.44;;;1.57;99.64
73297;BME280;61524;50.938;11.396;2024-03-17T05:38:38;99822.19;;;1.52;99.94
73297;BME280;61524;50.938;11.396;2024-03-17T05:41:05;99825.16;;;1.57;100.00
73297;BME280;61524;50.938;11.396;2024-03-17T05:43:34;99822.03;;;1.53;100.00
73297;BME280;61524;50.938;11.396;2024-03-17T05:46:01;99814.94;;;1.62;99.94
73297;BME280;61524;50.938;11.396;2024-03-17T05:48:28;99818.22;;;1.64;100.00
73297;BME280;61524;50.938;11.396;2024-03-17T05:50:54;99828.72;;;1.72;99.12
73297;BME280;61524;50.938;11.396;2024-03-17T05:53:20;99834.09;;;1.87;99.34
73297;BME280;61524;50.938;11.396;2024-03-17T05:55:47;99831.13;;;1.90;99.06
73297;BME280;61524;50.938;11.396;2024-03-17T05:58:12;99830.94;;;2.00;98.09
73297;BME280;61524;50.938;11.396;2024-03-17T06:00:39;99829.81;;;1.86;99.42
73297;BME280;61524;50.938;11.396;2024-03-17T06:03:05;99831.25;;;1.97;99.29
73297;BME280;61524;50.938;11.396;2024-03-17T06:05:38;99831.25;;;2.05;99.01
73297;BME280;61524;50.938;11.396;2024-03-17T06:08:06;99824.47;;;2.10;99.12
73297;BME280;61524;50.938;11.396;2024-03-17T06:10:35;99834.34;;;2.08;99.15
73297;BME280;61524;50.938;11.396;2024-03-17T06:13:02;99833.88;;;2.05;99.65
73297;BME280;61524;50.938;11.396;2024-03-17T06:15:28;99822.59;;;2.19;99.33
73297;BME280;61524;50.938;11.396;2024-03-17T06:17:54;99828.03;;;2.18;98.98
73297;BME280;61524;50.938;11.396;2024-03-17T06:20:22;99831.09;;;2.29;98.69
73297;BME280;61524;50.938;11.396;2024-03-17T06:22:49;99821.84;;;2.33;98.55
73297;BME280;61524;50.938;11.396;2024-03-17T06:25:14;99831.19;;;2.44;97.65
73297;BME280;61524;50.938;11.396;2024-03-17T06:27:40;99825.44;;;2.41;97.84
73297;BME280;61524;50.938;11.396;2024-03-17T06:30:06;99837.50;;;2.58;97.75
73297;BME280;61524;50.938;11.396;2024-03-17T06:32:32;99834.34;;;2.62;97.44
73297;BME280;61524;50.938;11.396;2024-03-17T06:34:58;99833.41;;;2.78;96.70
73297;BME280;61524;50.938;11.396;2024-03-17T06:37:24;99833.38;;;2.86;97.38
73297;BME280;61524;50.938;11.396;2024-03-17T06:39:50;99829.34;;;2.90;97.48
73297;BME280;61524;50.938;11.396;2024-03-17T06:42:15;99829.25;;;2.84;97.45
73297;BME280;61524;50.938;11.396;2024-03-17T06:44:41;99843.31;;;2.99;96.38
73297;BME280;61524;50.938;11.396;2024-03-17T06:47:06;99844.09;;;3.23;95.64
73297;BME280;61524;50.938;11.396;2024-03-17T06:49:31;99843.00;;;3.17;95.59
73297;BME280;61524;50.938;11.396;2024-03-17T06:51:58;99840.84;;;3.35;96.50
73297;BME280;61524;50.938;11.396;2024-03-17T06:54:23;99842.78;;;3.41;95.62
73297;BME280;61524;50.938;11.396;2024-03-17T06:56:49;99829.75;;;3.55;95.47
73297;BME280;61524;50.938;11.396;2024-03-17T06:59:15;99848.63;;;3.66;94.50
73297;BME280;61524;50.938;11.396;2024-03-17T07:01:41;99828.03;;;3.77;94.07
73297;BME280;61524;50.938;11.396;2024-03-17T07:04:06;99844.69;;;3.92;93.37
73297;BME280;61524;50.938;11.396;2024-03-17T07:06:32;99837.84;;;3.98;94.05
73297;BME280;61524;50.938;11.396;2024-03-17T07:08:57;99822.09;;;4.04;93.23
73297;BME280;61524;50.938;11.396;2024-03-17T07:11:23;99838.03;;;4.11;92.98
73297;BME280;61524;50.938;11.396;2024-03-17T07:13:49;99823.84;;;4.33;91.38
73297;BME280;61524;50.938;11.396;2024-03-17T07:16:16;99846.09;;;4.39;90.93
73297;BME280;61524;50.938;11.396;2024-03-17T07:18:43;99838.31;;;4.52;90.95
73297;BME280;61524;50.938;11.396;2024-03-17T07:21:10;99832.31;;;4.65;90.66
73297;BME280;61524;50.938;11.396;2024-03-17T07:23:36;99845.16;;;4.68;91.20
73297;BME280;61524;50.938;11.396;2024-03-17T07:26:02;99835.47;;;4.75;90.03
73297;BME280;61524;50.938;11.396;2024-03-17T07:28:30;99839.22;;;5.09;89.77
73297;BME280;61524;50.938;11.396;2024-03-17T07:30:57;99844.53;;;5.09;89.05
73297;BME280;61524;50.938;11.396;2024-03-17T07:33:23;99846.09;;;5.24;88.50
73297;BME280;61524;50.938;11.396;2024-03-17T07:35:56;99839.28;;;5.43;87.93
73297;BME280;61524;50.938;11.396;2024-03-17T07:38:24;99845.44;;;5.44;88.21
73297;BME280;61524;50.938;11.396;2024-03-17T07:41:03;99833.91;;;5.65;86.50
73297;BME280;61524;50.938;11.396;2024-03-17T07:43:30;99831.34;;;5.78;86.85
73297;BME280;61524;50.938;11.396;2024-03-17T07:45:58;99835.25;;;5.82;87.48
73297;BME280;61524;50.938;11.396;2024-03-17T07:48:23;99833.00;;;5.86;87.82
73297;BME280;61524;50.938;11.396;2024-03-17T07:50:59;99832.78;;;6.09;87.24
73297;BME280;61524;50.938;11.396;2024-03-17T07:53:26;99834.19;;;6.04;88.30
73297;BME280;61524;50.938;11.396;2024-03-17T07:56:06;99835.34;;;6.43;88.14
73297;BME280;61524;50.938;11.396;2024-03-17T07:58:33;99822.16;;;6.90;86.39
73297;BME280;61524;50.938;11.396;2024-03-17T08:01:00;99837.47;;;7.07;84.95
73297;BME280;61524;50.938;11.396;2024-03-17T08:03:30;99835.00;;;6.86;83.95
73297;BME280;61524;50.938;11.396;2024-03-17T08:05:57;99827.44;;;6.76;84.50
73297;BME280;61524;50.938;11.396;2024-03-17T08:08:23;99827.66;;;6.88;83.18
73297;BME280;61524;50.938;11.396;2024-03-17T08:10:48;99831.75;;;6.97;81.53
73297;BME280;61524;50.938;11.396;2024-03-17T08:13:15;99823.59;;;7.12;82.62
73297;BME280;61524;50.938;11.396;2024-03-17T08:15:44;99812.75;;;7.14;82.07
73297;BME280;61524;50.938;11.396;2024-03-17T08:18:11;99831.69;;;7.63;79.10
73297;BME280;61524;50.938;11.396;2024-03-17T08:20:37;99821.06;;;7.63;77.55
73297;BME280;61524;50.938;11.396;2024-03-17T08:23:04;99823.91;;;7.82;78.37
73297;BME280;61524;50.938;11.396;2024-03-17T08:25:31;99816.41;;;8.10;75.59
73297;BME280;61524;50.938;11.396;2024-03-17T08:27:56;99814.34;;;8.12;72.80
73297;BME280;61524;50.938;11.396;2024-03-17T08:30:21;99814.72;;;8.23;74.56
73297;BME280;61524;50.938;11.396;2024-03-17T08:32:47;99815.94;;;8.27;72.04
73297;BME280;61524;50.938;11.396;2024-03-17T08:35:12;99813.47;;;8.32;70.01
73297;BME280;61524;50.938;11.396;2024-03-17T08:37:38;99801.53;;;7.96;70.69
73297;BME280;61524;50.938;11.396;2024-03-17T08:40:04;99796.66;;;7.93;71.06
73297;BME280;61524;50.938;11.396;2024-03-17T08:42:32;99818.06;;;8.11;70.08
73297;BME280;61524;50.938;11.396;2024-03-17T08:44:57;99820.88;;;7.65;68.73
73297;BME280;61524;50.938;11.396;2024-03-17T08:47:23;99814.75;;;7.51;68.77
73297;BME280;61524;50.938;11.396;2024-03-17T08:49:51;99812.72;;;7.60;68.56
73297;BME280;61524;50.938;11.396;2024-03-17T08:52:17;99806.97;;;7.70;69.41
73297;BME280;61524;50.938;11.396;2024-03-17T08:54:49;99813.31;;;7.55;67.03
73297;BME280;61524;50.938;11.396;2024-03-17T08:57:16;99806.56;;;7.59;66.06
73297;BME280;61524;50.938;11.396;2024-03-17T08:59:42;99811.63;;;7.74;67.29
73297;BME280;61524;50.938;11.396;2024-03-17T09:02:12;99798.56;;;8.18;67.21
73297;BME280;61524;50.938;11.396;2024-03-17T09:04:40;99799.91;;;8.02;68.76
73297;BME280;61524;50.938;11.396;2024-03-17T09:07:05;99809.63;;;7.70;69.41
73297;BME280;61524;50.938;11.396;2024-03-17T09:09:31;99805.53;;;7.60;67.74
73297;BME280;61524;50.938;11.396;2024-03-17T09:11:57;99810.19;;;7.78;65.85
73297;BME280;61524;50.938;11.396;2024-03-17T09:14:22;99804.91;;;7.72;68.25
73297;BME280;61524;50.938;11.396;2024-03-17T09:16:48;99801.59;;;7.83;69.40
73297;BME280;61524;50.938;11.396;2024-03-17T09:19:13;99805.94;;;7.71;69.75
73297;BME280;61524;50.938;11.396;2024-03-17T09:21:39;99796.56;;;8.13;67.73
73297;BME280;61524;50.938;11.396;2024-03-17T09:24:07;99808.13;;;8.38;66.65
73297;BME280;61524;50.938;11.396;2024-03-17T09:26:33;99791.06;;;8.53;66.05
73297;BME280;61524;50.938;11.396;2024-03-17T09:29:04;99790.00;;;8.54;65.97
73297;BME280;61524;50.938;11.396;2024-03-17T09:31:30;99787.34;;;8.85;63.29
73297;BME280;61524;50.938;11.396;2024-03-17T09:33:59;99781.63;;;8.82;65.84
73297;BME280;61524;50.938;11.396;2024-03-17T09:36:24;99778.75;;;9.08;63.59
73297;BME280;61524;50.938;11.396;2024-03-17T09:38:50;99780.59;;;8.83;65.92
73297;BME280;61524;50.938;11.396;2024-03-17T09:41:23;99789.78;;;8.87;64.33
73297;BME280;61524;50.938;11.396;2024-03-17T09:43:54;99785.84;;;9.14;63.67
73297;BME280;61524;50.938;11.396;2024-03-17T09:46:22;99785.78;;;8.78;65.34
73297;BME280;61524;50.938;11.396;2024-03-17T09:48:48;99777.19;;;9.01;63.36
73297;BME280;61524;50.938;11.396;2024-03-17T09:51:22;99783.59;;;9.18;63.89
73297;BME280;61524;50.938;11.396;2024-03-17T09:53:48;99785.66;;;9.16;64.74
73297;BME280;61524;50.938;11.396;2024-03-17T09:56:16;99785.75;;;9.28;62.32
73297;BME280;61524;50.938;11.396;2024-03-17T09:58:43;99778.81;;;9.27;62.33
73297;BME280;61524;50.938;11.396;2024-03-17T10:01:09;99773.88;;;9.24;60.94
73297;BME280;61524;50.938;11.396;2024-03-17T10:03:47;99785.81;;;9.21;64.93
73297;BME280;61524;50.938;11.396;2024-03-17T10:06:30;99786.09;;;9.13;64.82
73297;BME280;61524;50.938;11.396;2024-03-17T10:09:00;99790.19;;;9.15;64.75
73297;BME280;61524;50.938;11.396;2024-03-17T10:11:46;99776.63;;;9.17;65.71
73297;BME280;61524;50.938;11.396;2024-03-17T10:14:16;99771.84;;;9.44;62.19
73297;BME280;61524;50.938;11.396;2024-03-17T10:16:43;99764.44;;;9.28;62.47
73297;BME280;61524;50.938;11.396;2024-03-17T10:19:16;99769.81;;;9.21;61.51
73297;BME280;61524;50.938;11.396;2024-03-17T10:21:47;99778.84;;;9.63;65.08
73297;BME280;61524;50.938;11.396;2024-03-17T10:24:26;99762.50;;;9.90;61.98
73297;BME280;61524;50.938;11.396;2024-03-17T10:26:58;99762.28;;;9.73;63.02
73297;BME280;61524;50.938;11.396;2024-03-17T10:29:32;99766.75;;;9.61;64.64
73297;BME280;61524;50.938;11.396;2024-03-17T10:32:13;99746.47;;;9.90;61.02
73297;BME280;61524;50.938;11.396;2024-03-17T10:34:40;99765.16;;;9.90;64.46
73297;BME280;61524;50.938;11.396;2024-03-17T10:37:09;99757.53;;;10.12;63.86
73297;BME280;61524;50.938;11.396;2024-03-17T10:39:42;99758.97;;;10.26;60.81
73297;BME280;61524;50.938;11.396;2024-03-17T10:42:10;99747.38;;;10.32;62.07
73297;BME280;61524;50.938;11.396;2024-03-17T10:44:41;99753.28;;;10.04;60.25
73297;BME280;61524;50.938;11.396;2024-03-17T10:47:23;99752.16;;;10.30;62.18
73297;BME280;61524;50.938;11.396;2024-03-17T10:49:53;99748.34;;;10.38;60.33
73297;BME280;61524;50.938;11.396;2024-03-17T10:52:21;99741.84;;;10.15;61.98
73297;BME280;61524;50.938;11.396;2024-03-17T10:54:52;99741.03;;;10.33;61.35
73297;BME280;61524;50.938;11.396;2024-03-17T10:59:53;99742.66;;;9.86;59.37
73297;BME280;61524;50.938;11.396;2024-03-17T11:02:25;99737.69;;;10.19;61.30
73297;BME280;61524;50.938;11.396;2024-03-17T11:04:59;99742.88;;;10.33;62.68
73297;BME280;61524;50.938;11.396;2024-03-17T11:07:26;99737.28;;;10.04;61.02
73297;BME280;61524;50.938;11.396;2024-03-17T11:09:55;99738.75;;;10.18;61.56
73297;BME280;61524;50.938;11.396;2024-03-17T11:17:47;99725.44;;;10.30;59.75
73297;BME280;61524;50.938;11.396;2024-03-17T11:20:22;99729.78;;;10.55;59.45
73297;BME280;61524;50.938;11.396;2024-03-17T11:22:50;99732.69;;;10.53;60.08
73297;BME280;61524;50.938;11.396;2024-03-17T11:25:37;99721.28;;;10.34;61.21
73297;BME280;61524;50.938;11.396;2024-03-17T11:28:04;99728.28;;;10.47;61.68
73297;BME280;61524;50.938;11.396;2024-03-17T11:38:58;99733.22;;;10.73;58.80
73297;BME280;61524;50.938;11.396;2024-03-17T11:41:40;99727.72;;;10.57;59.69
73297;BME280;61524;50.938;11.396;2024-03-17T11:47:02;99709.41;;;10.84;57.75
73297;BME280;61524;50.938;11.396;2024-03-17T11:52:11;99700.66;;;10.53;57.47
73297;BME280;61524;50.938;11.396;2024-03-17T11:54:39;99703.31;;;10.53;58.39
73297;BME280;61524;50.938;11.396;2024-03-17T11:57:13;99698.91;;;10.47;58.00
73297;BME280;61524;50.938;11.396;2024-03-17T11:59:40;99696.56;;;10.39;58.97
73297;BME280;61524;50.938;11.396;2024-03-17T12:02:26;99703.28;;;10.30;59.95
73297;BME280;61524;50.938;11.396;2024-03-17T12:04:53;99695.25;;;10.30;60.63
73297;BME280;61524;50.938;11.396;2024-03-17T12:07:20;99697.00;;;10.36;62.33
73297;BME280;61524;50.938;11.396;2024-03-17T12:09:48;99698.06;;;10.16;61.65
73297;BME280;61524;50.938;11.396;2024-03-17T12:14:43;99693.06;;;10.38;60.95
73297;BME280;61524;50.938;11.396;2024-03-17T12:17:11;99687.88;;;10.55;60.06
73297;BME280;61524;50.938;11.396;2024-03-17T12:19:38;99685.41;;;10.42;59.70
73297;BME280;61524;50.938;11.396;2024-03-17T12:22:05;99682.19;;;10.75;59.85
73297;BME280;61524;50.938;11.396;2024-03-17T12:24:32;99678.94;;;10.61;58.48
73297;BME280;61524;50.938;11.396;2024-03-17T12:26:59;99671.41;;;10.93;59.20
73297;BME280;61524;50.938;11.396;2024-03-17T12:29:26;99672.78;;;11.19;57.71
73297;BME280;61524;50.938;11.396;2024-03-17T12:31:54;99671.31;;;11.40;55.82
73297;BME280;61524;50.938;11.396;2024-03-17T12:34:21;99666.56;;;11.42;55.30
73297;BME280;61524;50.938;11.396;2024-03-17T12:36:47;99657.72;;;11.42;55.51
73297;BME280;61524;50.938;11.396;2024-03-17T12:39:25;99648.19;;;11.34;56.44
73297;BME280;61524;50.938;11.396;2024-03-17T12:44:47;99665.09;;;11.23;56.87
73297;BME280;61524;50.938;11.396;2024-03-17T12:47:21;99645.44;;;11.17;57.98
73297;BME280;61524;50.938;11.396;2024-03-17T12:52:23;99653.50;;;10.94;58.04
73297;BME280;61524;50.938;11.396;2024-03-17T12:55:04;99655.00;;;11.01;57.74
73297;BME280;61524;50.938;11.396;2024-03-17T13:00:46;99645.59;;;10.87;57.39
73297;BME280;61524;50.938;11.396;2024-03-17T13:03:23;99631.41;;;10.75;58.08
73297;BME280;61524;50.938;11.396;2024-03-17T13:05:49;99637.13;;;10.78;57.45
73297;BME280;61524;50.938;11.396;2024-03-17T13:08:15;99642.56;;;10.84;57.77
73297;BME280;61524;50.938;11.396;2024-03-17T13:10:41;99635.09;;;10.97;57.40
73297;BME280;61524;50.938;11.396;2024-03-17T13:13:12;99642.91;;;10.75;57.71
73297;BME280;61524;50.938;11.396;2024-03-17T13:15:38;99640.38;;;10.57;58.15
73297;BME280;61524;50.938;11.396;2024-03-17T13:18:04;99650.00;;;10.70;57.32
73297;BME280;61524;50.938;11.396;2024-03-17T13:20:31;99636.88;;;10.80;58.34
73297;BME280;61524;50.938;11.396;2024-03-17T13:22:57;99634.09;;;10.75;58.67
73297;BME280;61524;50.938;11.396;2024-03-17T13:25:26;99647.69;;;10.73;58.03
73297;BME280;61524;50.938;11.396;2024-03-17T13:27:55;99653.38;;;10.65;58.56
73297;BME280;61524;50.938;11.396;2024-03-17T13:30:22;99630.59;;;10.51;58.35